createdAt,value
2023-05-21T00:00:27.945Z,99.90
2023-05-21T00:03:39.194Z,99.90
2023-05-21T00:06:39.181Z,99.90
2023-05-21T00:09:08.394Z,99.90
2023-05-21T00:11:56.300Z,99.90
2023-05-21T00:15:29.188Z,99.90
2023-05-21T00:17:54.150Z,99.90
2023-05-21T00:20:43.126Z,99.90
2023-05-21T00:23:18.843Z,99.90
2023-05-21T00:25:48.308Z,99.90
2023-05-21T00:28:19.178Z,99.90
2023-05-21T00:30:49.968Z,99.90
2023-05-21T00:33:18.238Z,99.90
2023-05-21T00:35:54.818Z,99.90
2023-05-21T00:38:38.460Z,99.90
2023-05-21T00:41:11.636Z,99.90
2023-05-21T00:43:57.766Z,99.90
2023-05-21T00:46:30.371Z,99.90
2023-05-21T00:49:10.221Z,99.90
2023-05-21T00:51:38.866Z,99.90
2023-05-21T00:54:28.836Z,99.90
2023-05-21T00:57:01.121Z,99.90
2023-05-21T00:59:35.818Z,99.90
2023-05-21T01:26:21.342Z,99.90
2023-05-21T01:28:54.847Z,99.90
2023-05-21T01:32:02.843Z,99.90
2023-05-21T01:35:10.716Z,99.90
2023-05-21T01:38:00.844Z,99.90
2023-05-21T01:41:27.841Z,99.90
2023-05-21T01:44:01.402Z,99.90
2023-05-21T01:46:34.035Z,99.90
2023-05-21T01:49:03.573Z,99.90
2023-05-21T01:51:31.848Z,99.90
2023-05-21T01:54:00.120Z,99.90
2023-05-21T01:56:28.768Z,99.90
2023-05-21T01:59:03.611Z,99.90
2023-05-21T02:01:32.457Z,99.90
2023-05-21T02:04:02.032Z,99.90
2023-05-21T02:06:32.195Z,99.90
2023-05-21T02:09:05.445Z,99.90
2023-05-21T02:12:07.113Z,99.90
2023-05-21T02:14:43.095Z,99.90
2023-05-21T02:17:11.645Z,99.90
2023-05-21T02:19:44.729Z,99.90
2023-05-21T02:22:14.032Z,99.90
2023-05-21T02:24:46.436Z,99.90
2023-05-21T02:30:37.884Z,99.90
2023-05-21T02:33:09.897Z,99.90
2023-05-21T02:35:39.400Z,99.90
2023-05-21T02:38:09.729Z,99.90
2023-05-21T02:40:42.123Z,99.90
2023-05-21T02:43:15.412Z,99.90
2023-05-21T02:45:45.936Z,99.90
2023-05-21T02:48:14.331Z,99.90
2023-05-21T02:50:44.198Z,99.90
2023-05-21T02:53:13.740Z,99.90
2023-05-21T02:55:42.412Z,99.90
2023-05-21T02:58:25.016Z,99.90
2023-05-21T03:01:04.793Z,99.90
2023-05-21T03:03:33.923Z,99.90
2023-05-21T03:06:04.588Z,99.90
2023-05-21T03:08:33.417Z,99.90
2023-05-21T03:11:02.988Z,99.90
2023-05-21T03:13:34.784Z,99.90
2023-05-21T03:16:13.885Z,99.90
2023-05-21T03:18:41.313Z,99.90
2023-05-21T03:21:08.347Z,99.90
2023-05-21T03:23:35.283Z,99.90
2023-05-21T03:26:02.462Z,99.90
2023-05-21T03:28:29.549Z,99.90
2023-05-21T03:30:57.052Z,99.90
2023-05-21T03:33:42.745Z,99.90
2023-05-21T03:36:23.612Z,99.90
2023-05-21T03:38:50.662Z,99.90
2023-05-21T03:41:18.571Z,99.90
2023-05-21T03:43:50.218Z,99.90
2023-05-21T03:46:18.347Z,99.90
2023-05-21T03:49:05.264Z,99.90
2023-05-21T03:51:34.328Z,99.90
2023-05-21T03:54:01.519Z,99.90
2023-05-21T03:56:28.906Z,99.90
2023-05-21T03:58:55.968Z,99.90
2023-05-21T04:01:23.035Z,99.90
2023-05-21T04:03:52.363Z,99.90
2023-05-21T04:06:23.117Z,99.90
2023-05-21T04:08:51.364Z,99.90
2023-05-21T04:11:18.290Z,99.90
2023-05-21T04:13:46.217Z,99.90
2023-05-21T04:16:14.543Z,99.90
2023-05-21T04:18:44.859Z,99.90
2023-05-21T04:21:13.954Z,99.90
2023-05-21T04:23:41.190Z,99.90
2023-05-21T04:26:16.199Z,99.90
2023-05-21T04:28:43.249Z,99.90
2023-05-21T04:31:13.027Z,99.90
2023-05-21T04:33:42.078Z,99.90
2023-05-21T04:36:12.849Z,99.90
2023-05-21T04:38:41.888Z,99.90
2023-05-21T04:41:10.843Z,99.90
2023-05-21T04:43:38.270Z,99.90
2023-05-21T04:46:06.050Z,99.90
2023-05-21T04:48:34.122Z,99.90
2023-05-21T04:51:01.641Z,99.90
2023-05-21T04:53:29.171Z,99.90
2023-05-21T04:55:56.290Z,99.90
2023-05-21T04:58:23.300Z,99.90
2023-05-21T05:00:52.112Z,99.90
2023-05-21T05:03:19.416Z,99.90
2023-05-21T05:05:47.478Z,99.90
2023-05-21T05:08:15.998Z,99.90
2023-05-21T05:10:43.587Z,99.90
2023-05-21T05:13:10.656Z,99.90
2023-05-21T05:15:37.991Z,99.90
2023-05-21T05:18:08.554Z,99.90
2023-05-21T05:20:35.732Z,99.90
2023-05-21T05:23:02.661Z,99.90
2023-05-21T05:25:29.738Z,99.90
2023-05-21T05:27:56.776Z,99.90
2023-05-21T05:30:23.772Z,99.90
2023-05-21T05:32:51.244Z,99.90
2023-05-21T05:35:18.352Z,99.90
2023-05-21T05:37:45.373Z,99.90
2023-05-21T05:40:12.752Z,99.90
2023-05-21T05:42:40.316Z,99.90
2023-05-21T05:45:12.514Z,99.90
2023-05-21T05:47:40.569Z,99.90
2023-05-21T05:50:08.150Z,99.90
2023-05-21T05:52:35.902Z,99.90
2023-05-21T05:55:03.244Z,99.90
2023-05-21T05:57:30.444Z,99.90
2023-05-21T06:00:02.161Z,99.90
2023-05-21T06:02:39.884Z,99.90
2023-05-21T06:05:09.820Z,99.90
2023-05-21T06:07:38.620Z,99.90
2023-05-21T06:10:09.119Z,99.90
2023-05-21T06:12:36.519Z,99.90
2023-05-21T06:15:04.768Z,99.90
2023-05-21T06:17:32.066Z,99.90
2023-05-21T06:19:59.487Z,99.90
2023-05-21T06:22:27.855Z,99.90
2023-05-21T06:24:55.695Z,99.90
2023-05-21T06:27:22.689Z,99.90
2023-05-21T06:29:50.131Z,99.90
2023-05-21T06:32:17.352Z,99.90
2023-05-21T06:34:44.433Z,99.90
2023-05-21T06:37:11.488Z,99.90
2023-05-21T06:39:38.607Z,99.90
2023-05-21T06:42:06.167Z,99.90
2023-05-21T06:44:47.485Z,99.90
2023-05-21T06:47:23.769Z,99.90
2023-05-21T06:49:50.771Z,99.90
2023-05-21T06:52:17.773Z,99.90
2023-05-21T06:54:44.893Z,99.90
2023-05-21T06:57:11.935Z,99.90
2023-05-21T06:59:38.810Z,99.90
2023-05-21T07:02:06.537Z,99.90
2023-05-21T07:04:35.171Z,99.90
2023-05-21T07:07:04.985Z,99.90
2023-05-21T07:09:32.434Z,99.90
2023-05-21T07:11:59.564Z,99.90
2023-05-21T07:14:26.754Z,99.90
2023-05-21T07:16:53.932Z,99.90
2023-05-21T07:19:21.096Z,99.90
2023-05-21T07:21:49.659Z,99.90
2023-05-21T07:24:16.971Z,99.90
2023-05-21T07:26:44.058Z,99.90
2023-05-21T07:29:12.037Z,99.90
2023-05-21T07:31:39.748Z,99.90
2023-05-21T07:34:07.640Z,99.90
2023-05-21T07:36:34.720Z,99.90
2023-05-21T07:39:02.586Z,99.90
2023-05-21T07:41:30.007Z,99.90
2023-05-21T07:44:01.518Z,99.90
2023-05-21T07:46:28.801Z,99.90
2023-05-21T07:48:57.767Z,99.90
2023-05-21T07:51:26.310Z,99.90
2023-05-21T07:53:55.287Z,99.90
2023-05-21T07:56:28.815Z,99.90
2023-05-21T07:58:57.119Z,99.90
2023-05-21T08:01:28.278Z,99.90
2023-05-21T08:03:55.907Z,99.90
2023-05-21T08:06:24.414Z,99.90
2023-05-21T08:08:51.739Z,99.90
2023-05-21T08:11:18.875Z,99.90
2023-05-21T08:13:46.108Z,99.90
2023-05-21T08:16:14.187Z,99.90
2023-05-21T08:18:41.462Z,99.90
2023-05-21T08:21:08.759Z,99.90
2023-05-21T08:23:36.220Z,99.90
2023-05-21T08:26:03.915Z,99.90
2023-05-21T08:28:31.174Z,99.90
2023-05-21T08:30:59.394Z,99.90
2023-05-21T08:33:27.231Z,99.90
2023-05-21T08:35:54.704Z,99.90
2023-05-21T08:38:30.280Z,99.90
2023-05-21T08:40:59.749Z,99.90
2023-05-21T08:43:30.168Z,99.90
2023-05-21T08:46:03.358Z,99.90
2023-05-21T08:48:33.226Z,99.90
2023-05-21T08:51:01.223Z,99.90
2023-05-21T08:53:34.684Z,99.90
2023-05-21T08:56:03.847Z,99.90
2023-05-21T08:58:54.068Z,99.90
2023-05-21T09:01:26.382Z,99.90
2023-05-21T09:04:18.966Z,99.90
2023-05-21T09:06:50.424Z,99.90
2023-05-21T09:09:41.738Z,99.90
2023-05-21T09:12:08.897Z,99.90
2023-05-21T09:14:38.133Z,99.90
2023-05-21T09:17:16.001Z,99.90
2023-05-21T09:20:11.080Z,99.90
2023-05-21T09:22:44.269Z,99.90
2023-05-21T09:25:13.790Z,99.90
2023-05-21T09:27:41.264Z,99.90
2023-05-21T09:38:20.977Z,99.90
2023-05-21T09:40:54.965Z,99.90
2023-05-21T09:52:40.142Z,99.90
2023-05-21T09:55:18.502Z,99.90
2023-05-21T09:57:50.725Z,99.90
2023-05-21T10:00:43.226Z,99.90
2023-05-21T10:03:15.052Z,99.90
2023-05-21T10:05:43.683Z,99.90
2023-05-21T10:08:14.332Z,99.90
2023-05-21T10:10:44.254Z,99.90
2023-05-21T10:13:16.150Z,99.90
2023-05-21T10:15:50.115Z,99.90
2023-05-21T10:18:21.350Z,97.70
2023-05-21T10:20:49.405Z,97.60
2023-05-21T10:23:19.005Z,96.90
2023-05-21T10:25:49.550Z,94.90
2023-05-21T10:28:20.810Z,94.40
2023-05-21T10:30:48.325Z,94.10
2023-05-21T10:33:18.517Z,94.20
2023-05-21T10:35:48.349Z,93.90
2023-05-21T10:38:20.886Z,93.40
2023-05-21T10:40:49.463Z,92.60
2023-05-21T10:43:32.703Z,92.80
2023-05-21T10:46:36.849Z,93.20
2023-05-21T10:49:59.440Z,92.90
2023-05-21T10:53:11.181Z,92.20
2023-05-21T10:55:58.499Z,92.40
2023-05-21T10:58:59.374Z,91.60
2023-05-21T11:01:33.855Z,91.80
2023-05-21T11:04:01.748Z,93.00
2023-05-21T11:06:29.065Z,92.40
2023-05-21T11:08:56.222Z,91.40
2023-05-21T11:11:44.829Z,90.50
2023-05-21T11:14:39.656Z,88.60
2023-05-21T11:17:11.588Z,86.80
2023-05-21T11:19:44.090Z,88.10
2023-05-21T11:22:24.832Z,87.10
2023-05-21T11:25:00.949Z,89.60
2023-05-21T11:27:37.258Z,88.70
2023-05-21T11:30:10.418Z,89.60
2023-05-21T11:33:10.740Z,88.80
2023-05-21T11:36:01.257Z,89.40
2023-05-21T11:38:31.670Z,90.30
2023-05-21T11:41:04.016Z,89.60
2023-05-21T11:43:31.226Z,87.00
2023-05-21T11:45:59.362Z,87.10
2023-05-21T11:48:27.799Z,85.20
2023-05-21T11:50:57.522Z,87.20
2023-05-21T11:53:24.606Z,86.00
2023-05-21T11:55:57.418Z,85.30
2023-05-21T11:58:24.674Z,84.30
2023-05-21T12:00:52.090Z,82.90
2023-05-21T12:03:20.491Z,85.40
2023-05-21T12:05:51.533Z,85.40
2023-05-21T12:08:25.740Z,84.80
2023-05-21T12:11:01.742Z,85.00
2023-05-21T12:13:29.992Z,83.80
2023-05-21T12:15:56.935Z,83.40
2023-05-21T12:18:23.945Z,81.70
2023-05-21T12:20:52.493Z,79.00
2023-05-21T12:23:24.093Z,79.50
2023-05-21T12:25:53.551Z,76.70
2023-05-21T12:28:24.823Z,76.50
2023-05-21T12:30:53.587Z,76.80
2023-05-21T12:33:22.418Z,73.30
2023-05-21T12:35:52.400Z,74.20
2023-05-21T12:38:19.516Z,73.50
2023-05-21T12:40:46.615Z,72.60
2023-05-21T12:43:13.689Z,74.00
2023-05-21T12:45:41.132Z,74.30
2023-05-21T12:48:08.886Z,73.00
2023-05-21T12:50:40.988Z,73.20
2023-05-21T12:53:11.447Z,71.40
2023-05-21T12:55:38.743Z,71.50
2023-05-21T12:58:08.871Z,71.60
2023-05-21T13:00:36.852Z,71.80
2023-05-21T13:03:06.389Z,69.70
2023-05-21T13:05:34.082Z,70.00
2023-05-21T13:08:01.599Z,67.30
2023-05-21T13:10:28.602Z,67.90
2023-05-21T13:12:55.797Z,67.90
2023-05-21T13:15:22.815Z,68.10
2023-05-21T13:17:50.918Z,67.90
2023-05-21T13:20:23.797Z,67.40
2023-05-21T13:22:52.669Z,66.70
2023-05-21T13:25:28.705Z,66.40
2023-05-21T13:27:57.505Z,66.00
2023-05-21T13:30:24.599Z,65.90
2023-05-21T13:32:52.423Z,65.80
2023-05-21T13:35:19.985Z,65.50
2023-05-21T13:37:47.258Z,65.80
2023-05-21T13:40:16.111Z,64.80
2023-05-21T13:42:46.974Z,64.50
2023-05-21T13:45:18.400Z,66.40
2023-05-21T13:47:47.804Z,65.70
2023-05-21T13:50:15.963Z,65.70
2023-05-21T13:52:43.197Z,66.20
2023-05-21T13:55:10.930Z,64.60
2023-05-21T13:57:38.510Z,65.30
2023-05-21T14:00:09.120Z,65.20
2023-05-21T14:02:37.063Z,65.40
2023-05-21T14:05:04.513Z,64.70
2023-05-21T14:07:31.483Z,64.50
2023-05-21T14:09:58.844Z,66.00
2023-05-21T14:12:26.887Z,64.80
2023-05-21T14:14:54.086Z,64.00
2023-05-21T14:17:21.396Z,66.10
2023-05-21T14:19:48.561Z,65.50
2023-05-21T14:22:15.678Z,66.30
2023-05-21T14:24:42.814Z,66.20
2023-05-21T14:27:10.041Z,66.70
2023-05-21T14:29:37.128Z,65.70
2023-05-21T14:32:06.008Z,65.50
2023-05-21T14:34:33.064Z,65.50
2023-05-21T14:37:00.151Z,65.70
2023-05-21T14:39:27.119Z,65.10
2023-05-21T14:41:54.292Z,65.70
2023-05-21T14:44:21.327Z,64.80
2023-05-21T14:46:48.582Z,65.00
2023-05-21T14:49:15.771Z,65.00
2023-05-21T14:51:43.779Z,64.70
2023-05-21T14:54:11.240Z,65.40
2023-05-21T14:56:38.793Z,64.50
2023-05-21T14:59:06.906Z,63.40
2023-05-21T15:01:34.448Z,63.60
2023-05-21T15:04:03.425Z,64.30
2023-05-21T15:06:30.965Z,64.50
2023-05-21T15:08:58.141Z,64.40
2023-05-21T15:11:25.675Z,64.40
2023-05-21T15:13:52.679Z,64.60
2023-05-21T15:16:19.973Z,64.50
2023-05-21T15:18:47.251Z,64.20
2023-05-21T15:21:14.713Z,64.40
2023-05-21T15:23:41.810Z,64.30
2023-05-21T15:26:09.274Z,64.70
2023-05-21T15:28:36.515Z,65.00
2023-05-21T15:31:04.129Z,65.00
2023-05-21T15:33:31.203Z,65.40
2023-05-21T15:35:58.346Z,65.70
2023-05-21T15:38:25.730Z,65.40
2023-05-21T15:40:53.564Z,66.00
2023-05-21T15:43:20.787Z,66.30
2023-05-21T15:45:48.053Z,66.00
2023-05-21T15:48:15.111Z,66.10
2023-05-21T15:50:42.247Z,66.60
2023-05-21T15:53:11.304Z,66.50
2023-05-21T15:55:38.840Z,67.80
2023-05-21T15:58:06.205Z,66.90
2023-05-21T16:00:34.394Z,68.10
2023-05-21T16:03:01.656Z,68.70
2023-05-21T16:05:29.266Z,68.30
2023-05-21T16:07:56.242Z,68.90
2023-05-21T16:10:33.517Z,69.40
2023-05-21T16:13:53.999Z,69.90
2023-05-21T16:25:43.302Z,71.50
2023-05-21T17:14:05.030Z,76.50
2023-05-21T17:16:32.199Z,77.10
2023-05-21T17:18:59.678Z,77.40
2023-05-21T17:21:27.372Z,77.60
2023-05-21T17:23:54.684Z,77.60
2023-05-21T17:26:22.492Z,78.20
2023-05-21T17:28:49.635Z,78.90
2023-05-21T17:31:16.963Z,79.20
2023-05-21T17:33:44.112Z,79.80
2023-05-21T17:36:11.219Z,80.30
2023-05-21T17:38:38.227Z,80.90
2023-05-21T17:41:05.498Z,81.50
2023-05-21T17:43:32.559Z,81.70
2023-05-21T17:45:59.578Z,81.60
2023-05-21T17:48:26.727Z,82.50
2023-05-21T17:50:53.839Z,82.90
2023-05-21T17:53:21.063Z,83.40
2023-05-21T17:55:48.069Z,83.50
2023-05-21T17:58:15.687Z,84.60
2023-05-21T18:00:42.898Z,84.80
2023-05-21T18:03:10.024Z,84.70
2023-05-21T18:05:37.188Z,85.80
2023-05-21T18:08:04.821Z,86.60
2023-05-21T18:10:31.886Z,87.20
2023-05-21T18:12:58.899Z,88.10
2023-05-21T18:15:33.561Z,88.70
2023-05-21T18:18:12.908Z,89.30
2023-05-21T18:48:30.814Z,93.60
2023-05-21T19:04:28.770Z,96.50
2023-05-21T19:07:17.822Z,97.20
2023-05-21T19:10:10.782Z,97.70
2023-05-21T19:17:35.206Z,98.30
2023-05-21T19:20:09.290Z,98.80
2023-05-21T19:33:13.180Z,99.90
2023-05-21T19:36:15.233Z,99.90
2023-05-21T19:38:52.264Z,99.90
2023-05-21T19:41:51.545Z,99.90
2023-05-21T19:44:51.901Z,99.90
2023-05-21T19:47:47.780Z,99.90
2023-05-21T19:50:51.470Z,99.90
2023-05-21T19:53:19.837Z,99.90
2023-05-21T19:55:54.780Z,99.90
2023-05-21T20:06:57.642Z,99.90
2023-05-21T20:35:41.330Z,99.90
2023-05-21T20:39:00.534Z,99.90
2023-05-21T20:46:44.224Z,99.90
2023-05-21T20:55:28.016Z,99.90
2023-05-21T21:05:28.595Z,99.90
2023-05-21T21:08:02.520Z,99.90
2023-05-21T21:10:29.579Z,99.90
2023-05-21T21:12:56.518Z,99.90
2023-05-21T21:15:23.567Z,99.90
2023-05-21T21:17:50.620Z,99.90
2023-05-21T21:20:20.359Z,99.90
2023-05-21T21:22:47.430Z,99.90
2023-05-21T21:25:14.661Z,99.90
2023-05-21T21:27:42.461Z,99.90
2023-05-21T21:30:10.228Z,99.90
2023-05-21T21:32:37.546Z,99.90
2023-05-21T21:35:05.007Z,99.90
2023-05-21T21:37:31.978Z,99.90
2023-05-21T21:39:58.926Z,99.90
2023-05-21T21:42:25.885Z,99.90
2023-05-21T21:44:52.848Z,99.90
2023-05-21T21:47:19.860Z,99.90
2023-05-21T21:49:48.186Z,99.90
2023-05-21T21:52:17.007Z,99.90
2023-05-21T21:54:44.251Z,99.90
2023-05-21T21:57:11.259Z,99.90
2023-05-21T21:59:39.508Z,99.90
2023-05-21T22:02:06.557Z,99.90
2023-05-21T22:04:33.540Z,99.90
2023-05-21T22:07:01.712Z,99.90
2023-05-21T22:09:28.877Z,99.90
2023-05-21T22:11:56.450Z,99.90
2023-05-21T22:14:23.876Z,99.90
2023-05-21T22:16:53.157Z,99.90
2023-05-21T22:19:22.034Z,99.90
2023-05-21T22:21:49.328Z,99.90
2023-05-21T22:24:30.944Z,99.90
2023-05-21T22:26:59.529Z,99.90
2023-05-21T22:29:26.605Z,99.90
2023-05-21T22:31:53.663Z,99.90
2023-05-21T22:34:20.842Z,99.90
2023-05-21T22:41:30.986Z,99.90
2023-05-21T23:39:55.224Z,99.90
2023-05-21T23:42:45.599Z,99.90
2023-05-21T23:45:40.315Z,99.90
2023-05-21T23:48:55.285Z,99.90
2023-05-21T23:56:52.271Z,99.90
